createdAt,value
2023-02-18T00:01:19.393Z,95.76
2023-02-18T00:05:31.208Z,95.85
2023-02-18T00:09:42.805Z,95.70
2023-02-18T00:13:57.169Z,95.86
2023-02-18T00:18:09.002Z,96.11
2023-02-18T00:22:20.683Z,96.00
2023-02-18T00:26:32.935Z,95.95
2023-02-18T00:30:44.539Z,96.02
2023-02-18T00:34:56.181Z,96.63
2023-02-18T00:39:10.566Z,96.75
2023-02-18T00:43:22.281Z,96.97
2023-02-18T00:47:33.993Z,96.99
2023-02-18T00:51:45.754Z,97.34
2023-02-18T00:55:57.723Z,97.70
2023-02-18T01:00:10.718Z,97.82
2023-02-18T01:04:22.424Z,97.94
2023-02-18T01:08:36.079Z,97.93
2023-02-18T01:12:47.743Z,97.75
2023-02-18T01:16:59.355Z,98.19
2023-02-18T01:21:11.048Z,97.81
2023-02-18T01:25:23.021Z,98.26
2023-02-18T01:29:34.729Z,98.09
2023-02-18T01:33:46.379Z,98.20
2023-02-18T01:37:58.400Z,98.39
2023-02-18T01:42:23.501Z,98.55
2023-02-18T01:46:35.193Z,98.01
2023-02-18T01:51:15.995Z,98.42
2023-02-18T01:55:27.876Z,98.41
2023-02-18T01:59:44.489Z,98.27
2023-02-18T02:03:56.270Z,98.02
2023-02-18T02:08:08.300Z,98.15
2023-02-18T02:12:56.774Z,98.34
2023-02-18T02:17:16.976Z,98.02
2023-02-18T02:21:58.197Z,98.38
2023-02-18T02:26:15.848Z,98.11
2023-02-18T02:30:42.098Z,98.08
2023-02-18T02:35:02.843Z,98.11
2023-02-18T02:39:24.283Z,98.32
2023-02-18T02:43:52.089Z,98.68
2023-02-18T02:48:03.740Z,98.70
2023-02-18T02:52:23.831Z,98.89
2023-02-18T02:56:38.364Z,99.03
2023-02-18T03:01:21.065Z,99.33
2023-02-18T03:05:39.193Z,99.44
2023-02-18T03:10:00.192Z,99.49
2023-02-18T03:14:28.174Z,100.00
2023-02-18T03:18:50.417Z,99.92
2023-02-18T03:23:07.925Z,100.00
2023-02-18T03:27:37.766Z,100.00
2023-02-18T03:31:56.005Z,100.00
2023-02-18T03:36:10.555Z,100.00
2023-02-18T03:40:22.725Z,100.00
2023-02-18T03:44:34.422Z,100.00
2023-02-18T03:48:46.318Z,100.00
2023-02-18T03:52:58.750Z,100.00
2023-02-18T03:57:11.990Z,100.00
2023-02-18T04:01:23.798Z,100.00
2023-02-18T04:05:36.640Z,100.00
2023-02-18T04:09:48.418Z,100.00
2023-02-18T04:14:00.102Z,100.00
2023-02-18T04:18:11.882Z,100.00
2023-02-18T04:22:23.535Z,100.00
2023-02-18T04:26:35.411Z,100.00
2023-02-18T04:30:48.452Z,100.00
2023-02-18T04:35:00.183Z,100.00
2023-02-18T04:39:12.010Z,100.00
2023-02-18T04:43:23.680Z,100.00
2023-02-18T04:47:35.284Z,100.00
2023-02-18T04:51:46.929Z,100.00
2023-02-18T04:55:59.393Z,100.00
2023-02-18T05:00:15.162Z,100.00
2023-02-18T05:04:26.918Z,100.00
2023-02-18T05:08:38.649Z,100.00
2023-02-18T05:12:50.336Z,100.00
2023-02-18T05:17:02.008Z,100.00
2023-02-18T05:21:13.670Z,100.00
2023-02-18T05:25:25.476Z,100.00
2023-02-18T05:29:37.131Z,100.00
2023-02-18T05:33:48.796Z,100.00
2023-02-18T05:38:00.344Z,100.00
2023-02-18T05:42:11.985Z,100.00
2023-02-18T05:46:24.062Z,100.00
2023-02-18T05:50:36.017Z,100.00
2023-02-18T05:54:48.919Z,100.00
2023-02-18T05:59:00.597Z,100.00
2023-02-18T06:03:12.199Z,100.00
2023-02-18T06:07:23.767Z,100.00
2023-02-18T06:11:35.902Z,100.00
2023-02-18T06:15:50.960Z,100.00
2023-02-18T06:20:02.579Z,100.00
2023-02-18T06:24:14.225Z,100.00
2023-02-18T06:28:25.930Z,100.00
2023-02-18T06:32:37.562Z,100.00
2023-02-18T06:36:49.539Z,100.00
2023-02-18T06:41:01.463Z,100.00
2023-02-18T06:45:13.400Z,100.00
2023-02-18T06:49:25.094Z,100.00
2023-02-18T06:53:36.768Z,100.00
2023-02-18T06:57:48.585Z,100.00
2023-02-18T07:02:00.242Z,100.00
2023-02-18T07:06:11.991Z,100.00
2023-02-18T07:10:23.658Z,100.00
2023-02-18T07:14:35.335Z,100.00
2023-02-18T07:18:47.106Z,100.00
2023-02-18T07:22:58.900Z,100.00
2023-02-18T07:27:10.528Z,100.00
2023-02-18T07:31:22.320Z,100.00
2023-02-18T07:35:34.010Z,100.00
2023-02-18T07:39:45.753Z,100.00
2023-02-18T07:43:57.500Z,100.00
2023-02-18T07:48:09.151Z,100.00
2023-02-18T07:52:20.844Z,100.00
2023-02-18T07:56:32.492Z,100.00
2023-02-18T08:00:44.413Z,100.00
2023-02-18T08:04:56.165Z,100.00
2023-02-18T08:09:08.473Z,100.00
2023-02-18T08:13:20.139Z,100.00
2023-02-18T08:17:31.814Z,100.00
2023-02-18T08:21:43.491Z,100.00
2023-02-18T08:25:55.066Z,100.00
2023-02-18T08:30:07.436Z,100.00
2023-02-18T08:34:19.075Z,99.86
2023-02-18T08:38:30.680Z,99.93
2023-02-18T08:42:42.324Z,99.37
2023-02-18T08:46:54.102Z,98.77
2023-02-18T08:51:20.988Z,98.42
2023-02-18T08:55:34.795Z,98.17
2023-02-18T08:59:46.336Z,98.08
2023-02-18T09:03:58.455Z,97.56
2023-02-18T09:08:10.045Z,97.48
2023-02-18T09:12:21.607Z,97.54
2023-02-18T09:16:33.305Z,97.40
2023-02-18T09:20:44.978Z,97.76
2023-02-18T09:24:56.572Z,98.25
2023-02-18T09:29:08.217Z,98.35
2023-02-18T09:33:19.979Z,98.37
2023-02-18T09:37:31.701Z,98.77
2023-02-18T09:41:47.247Z,98.86
2023-02-18T09:46:00.591Z,98.99
2023-02-18T09:50:32.584Z,99.44
2023-02-18T09:54:44.350Z,99.25
2023-02-18T09:58:59.905Z,99.06
2023-02-18T10:03:21.284Z,98.85
2023-02-18T10:07:35.224Z,98.72
2023-02-18T10:11:51.971Z,98.18
2023-02-18T10:16:04.695Z,97.93
2023-02-18T10:20:24.564Z,97.65
2023-02-18T10:24:51.620Z,97.48
2023-02-18T10:29:03.920Z,97.35
2023-02-18T10:33:30.587Z,97.34
2023-02-18T10:37:57.384Z,97.82
2023-02-18T10:42:41.463Z,97.52
2023-02-18T10:47:17.434Z,97.51
2023-02-18T10:51:35.297Z,97.37
2023-02-18T10:55:51.247Z,97.41
2023-02-18T11:00:26.409Z,97.49
2023-02-18T11:04:44.393Z,98.09
2023-02-18T11:08:57.786Z,98.18
2023-02-18T11:13:32.862Z,98.49
2023-02-18T11:17:50.765Z,98.04
2023-02-18T11:22:19.425Z,98.37
2023-02-18T11:26:34.554Z,98.03
2023-02-18T11:30:49.814Z,97.84
2023-02-18T11:35:03.525Z,97.04
2023-02-18T11:39:27.798Z,96.54
2023-02-18T11:43:46.401Z,96.59
2023-02-18T11:48:06.447Z,96.41
2023-02-18T11:52:27.216Z,96.06
2023-02-18T11:56:38.874Z,95.97
2023-02-18T12:00:53.852Z,95.95
2023-02-18T12:05:18.273Z,95.35
2023-02-18T12:09:35.243Z,95.46
2023-02-18T12:13:53.823Z,95.34
2023-02-18T12:18:38.833Z,95.75
2023-02-18T12:23:32.579Z,95.74
2023-02-18T12:27:58.308Z,96.04
2023-02-18T12:32:09.879Z,96.18
2023-02-18T12:36:49.380Z,96.19
2023-02-18T12:41:22.229Z,96.58
2023-02-18T12:45:41.420Z,96.27
2023-02-18T12:49:53.009Z,96.06
2023-02-18T12:54:31.592Z,96.18
2023-02-18T12:59:08.989Z,95.84
2023-02-18T13:03:35.890Z,95.14
2023-02-18T13:07:53.405Z,94.88
2023-02-18T13:12:15.149Z,94.56
2023-02-18T13:16:28.400Z,94.39
2023-02-18T13:20:54.241Z,93.98
2023-02-18T13:25:13.635Z,93.83
2023-02-18T13:29:34.669Z,94.10
2023-02-18T13:34:04.641Z,93.21
2023-02-18T13:38:28.295Z,92.86
2023-02-18T13:42:39.894Z,92.19
2023-02-18T13:46:57.498Z,92.13
2023-02-18T13:51:09.964Z,91.82
2023-02-18T13:55:29.578Z,91.69
2023-02-18T13:59:51.492Z,91.48
2023-02-18T14:04:03.975Z,91.23
2023-02-18T14:08:34.802Z,91.44
2023-02-18T14:12:58.811Z,91.29
2023-02-18T14:17:19.526Z,91.23
2023-02-18T14:21:41.871Z,91.26
2023-02-18T14:25:57.324Z,90.92
2023-02-18T14:30:20.427Z,90.40
2023-02-18T14:34:46.140Z,90.32
2023-02-18T14:39:31.108Z,90.51
2023-02-18T14:44:15.943Z,90.65
2023-02-18T14:48:55.976Z,90.26
2023-02-18T14:53:28.728Z,90.51
2023-02-18T14:57:47.040Z,90.44
2023-02-18T15:01:58.727Z,90.06
2023-02-18T15:06:24.018Z,90.31
2023-02-18T15:10:43.464Z,90.25
2023-02-18T15:15:01.562Z,90.04
2023-02-18T15:19:19.039Z,90.09
2023-02-18T15:23:31.971Z,90.21
2023-02-18T15:27:47.508Z,89.84
2023-02-18T15:31:59.406Z,90.05
2023-02-18T15:36:14.973Z,89.91
2023-02-18T15:40:31.503Z,89.62
2023-02-18T15:44:48.657Z,89.97
2023-02-18T16:43:54.792Z,90.10
2023-02-18T16:48:11.692Z,90.56
2023-02-18T16:52:23.286Z,90.33
2023-02-18T16:56:35.548Z,90.83
2023-02-18T17:00:50.000Z,90.59
2023-02-18T17:05:01.747Z,90.59
2023-02-18T17:09:22.073Z,90.63
2023-02-18T17:13:33.684Z,90.77
2023-02-18T17:17:45.343Z,90.92
2023-02-18T17:21:57.086Z,91.22
2023-02-18T17:26:16.963Z,91.37
2023-02-18T17:30:30.613Z,91.24
2023-02-18T17:34:42.274Z,91.22
2023-02-18T17:38:53.964Z,91.34
2023-02-18T17:43:06.275Z,91.20
2023-02-18T17:47:17.955Z,91.18
2023-02-18T17:51:29.959Z,91.42
2023-02-18T17:55:42.799Z,91.44
2023-02-18T17:59:56.173Z,91.41
2023-02-18T18:04:19.264Z,91.82
2023-02-18T18:08:31.385Z,91.78
2023-02-18T18:12:43.142Z,91.64
2023-02-18T18:16:54.875Z,91.82
2023-02-18T18:21:07.360Z,91.94
2023-02-18T18:25:27.129Z,91.72
2023-02-18T18:29:38.734Z,92.05
2023-02-18T18:33:53.322Z,92.14
2023-02-18T18:38:05.281Z,92.13
2023-02-18T18:42:16.955Z,92.11
2023-02-18T18:46:28.545Z,92.61
2023-02-18T18:50:41.882Z,92.71
2023-02-18T18:54:53.520Z,92.46
2023-02-18T18:59:05.219Z,92.55
2023-02-18T19:03:17.302Z,92.44
2023-02-18T19:07:29.024Z,92.68
2023-02-18T19:11:40.609Z,93.06
2023-02-18T19:16:19.752Z,93.44
2023-02-18T19:20:33.561Z,93.48
2023-02-18T19:24:45.194Z,94.13
2023-02-18T19:28:56.813Z,94.21
2023-02-18T19:33:10.291Z,94.35
2023-02-18T19:37:23.388Z,94.85
2023-02-18T19:41:38.139Z,95.18
2023-02-18T19:45:49.762Z,95.37
2023-02-18T19:50:02.220Z,95.61
2023-02-18T19:54:13.856Z,95.39
2023-02-18T19:58:25.811Z,95.21
2023-02-18T20:02:39.410Z,95.40
2023-02-18T20:06:51.101Z,95.71
2023-02-18T20:11:02.945Z,95.62
2023-02-18T20:15:14.555Z,95.86
2023-02-18T20:19:29.861Z,95.60
2023-02-18T20:23:42.568Z,95.72
2023-02-18T20:28:00.800Z,95.76
2023-02-18T20:32:13.025Z,95.88
2023-02-18T20:36:25.095Z,96.48
2023-02-18T20:40:36.809Z,96.59
2023-02-18T20:44:49.320Z,96.65
2023-02-18T20:49:01.092Z,97.25
2023-02-18T20:53:12.714Z,97.26
2023-02-18T20:57:24.413Z,97.57
2023-02-18T21:01:36.082Z,97.70
2023-02-18T21:05:58.193Z,97.94
2023-02-18T21:10:09.884Z,97.78
2023-02-18T21:14:21.776Z,98.32
2023-02-18T21:18:34.139Z,98.34
2023-02-18T21:22:45.852Z,98.60
2023-02-18T21:26:58.091Z,98.24
2023-02-18T21:31:24.977Z,98.89
2023-02-18T21:35:38.451Z,98.93
2023-02-18T21:39:50.110Z,98.76
2023-02-18T21:44:02.561Z,98.67
2023-02-18T21:48:32.908Z,98.96
2023-02-18T21:52:44.471Z,99.13
2023-02-18T21:56:57.396Z,99.02
2023-02-18T22:01:34.819Z,99.49
2023-02-18T22:05:46.389Z,99.58
2023-02-18T22:09:58.163Z,99.29
2023-02-18T22:14:14.425Z,99.26
2023-02-18T22:18:26.048Z,99.43
2023-02-18T22:22:37.718Z,99.92
2023-02-18T22:26:50.515Z,99.72
2023-02-18T22:31:13.043Z,99.65
2023-02-18T22:35:24.993Z,99.55
2023-02-18T22:39:36.827Z,99.72
2023-02-18T22:43:48.874Z,99.50
2023-02-18T22:48:00.698Z,99.27
2023-02-18T22:52:12.463Z,99.21
2023-02-18T22:56:26.589Z,99.49
2023-02-18T23:00:38.221Z,99.06
2023-02-18T23:04:49.924Z,99.11
2023-02-18T23:09:01.744Z,98.86
2023-02-18T23:13:13.372Z,98.67
2023-02-18T23:17:25.086Z,98.80
2023-02-18T23:21:36.692Z,98.53
2023-02-18T23:25:48.346Z,98.45
2023-02-18T23:30:00.093Z,98.49
2023-02-18T23:34:14.994Z,98.12
2023-02-18T23:38:26.645Z,98.18
2023-02-18T23:42:38.285Z,98.29
2023-02-18T23:46:50.887Z,98.69
2023-02-18T23:51:05.193Z,98.46
2023-02-18T23:55:16.922Z,98.87
2023-02-18T23:59:28.530Z,98.72
